createdAt,value
2019-05-12T00:01:48.037Z,3.67
2019-05-12T00:06:50.522Z,3.37
2019-05-12T00:11:53.827Z,3.35
2019-05-12T00:16:58.020Z,2.95
2019-05-12T00:22:01.468Z,3.05
2019-05-12T00:27:08.482Z,3.45
2019-05-12T00:32:11.557Z,2.85
2019-05-12T00:37:14.898Z,3.27
2019-05-12T00:42:18.402Z,2.92
2019-05-12T00:47:21.759Z,2.98
2019-05-12T00:52:25.104Z,2.83
2019-05-12T00:57:28.761Z,2.60
2019-05-12T01:02:32.106Z,3.08
2019-05-12T01:07:38.041Z,3.08
2019-05-12T01:12:40.550Z,2.70
2019-05-12T01:17:43.890Z,2.60
2019-05-12T01:22:50.351Z,2.85
2019-05-12T01:27:52.267Z,3.27
2019-05-12T01:32:57.982Z,2.70
2019-05-12T01:38:01.519Z,3.10
2019-05-12T01:43:04.974Z,2.90
2019-05-12T01:48:09.228Z,2.58
2019-05-12T01:53:12.758Z,3.10
2019-05-12T01:58:19.064Z,2.33
2019-05-12T02:03:21.157Z,2.70
2019-05-12T02:08:28.793Z,2.45
2019-05-12T02:13:32.110Z,2.90
2019-05-12T02:18:35.407Z,2.70
2019-05-12T02:23:38.803Z,2.50
2019-05-12T02:28:42.151Z,2.90
2019-05-12T02:33:45.468Z,2.27
2019-05-12T02:38:48.857Z,2.77
2019-05-12T02:43:55.152Z,2.58
2019-05-12T02:48:57.217Z,2.75
2019-05-12T02:54:00.602Z,2.22
2019-05-12T02:59:05.253Z,2.12
2019-05-12T03:04:08.921Z,2.65
2019-05-12T03:09:15.126Z,2.80
2019-05-12T03:14:17.321Z,2.30
2019-05-12T03:19:20.629Z,2.77
2019-05-12T03:24:25.035Z,2.42
2019-05-12T03:29:28.519Z,2.40
2019-05-12T03:34:37.528Z,2.10
2019-05-12T03:39:36.883Z,2.52
2019-05-12T03:44:40.192Z,2.58
2019-05-12T03:49:45.417Z,2.58
2019-05-12T03:54:48.519Z,1.85
2019-05-12T03:59:54.318Z,2.17
2019-05-12T04:04:56.875Z,1.92
2019-05-12T04:10:00.174Z,2.30
2019-05-12T04:15:05.149Z,2.47
2019-05-12T04:20:08.747Z,2.20
2019-05-12T04:25:14.689Z,2.52
2019-05-12T04:30:17.093Z,2.17
2019-05-12T04:35:20.383Z,2.30
2019-05-12T04:40:24.765Z,2.02
2019-05-12T04:45:28.304Z,2.22
2019-05-12T04:50:34.901Z,1.95
2019-05-12T04:55:36.920Z,2.15
2019-05-12T05:00:40.217Z,1.92
2019-05-12T05:05:44.457Z,1.65
2019-05-12T05:10:48.008Z,2.37
2019-05-12T05:15:51.342Z,1.75
2019-05-12T05:20:54.685Z,1.90
2019-05-12T05:25:58.002Z,1.92
2019-05-12T05:31:03.365Z,1.90
2019-05-12T05:36:08.842Z,1.87
2019-05-12T05:41:13.455Z,2.00
2019-05-12T05:46:16.385Z,1.60
2019-05-12T05:51:19.697Z,1.75
2019-05-12T05:56:38.411Z,2.00
2019-05-12T06:01:28.098Z,2.00
2019-05-12T06:06:31.439Z,2.25
2019-05-12T06:11:34.759Z,2.15
2019-05-12T06:16:38.097Z,1.80
2019-05-12T06:21:43.788Z,1.80
2019-05-12T06:26:56.591Z,1.77
2019-05-12T06:31:51.529Z,1.98
2019-05-12T06:36:57.272Z,2.52
2019-05-12T06:42:11.601Z,2.08
2019-05-12T06:47:08.082Z,3.25
2019-05-12T06:52:10.045Z,2.83
2019-05-12T06:57:22.118Z,2.98
2019-05-12T07:02:18.442Z,3.58
2019-05-12T07:07:25.578Z,3.50
2019-05-12T07:12:32.676Z,3.27
2019-05-12T07:17:37.266Z,3.05
2019-05-12T07:22:44.481Z,3.10
2019-05-12T07:27:47.325Z,3.20
2019-05-12T07:32:51.214Z,3.30
2019-05-12T07:37:54.534Z,3.70
2019-05-12T07:42:58.505Z,3.70
2019-05-12T07:48:05.711Z,3.45
2019-05-12T07:53:06.901Z,3.65
2019-05-12T07:58:15.590Z,3.30
2019-05-12T08:03:20.918Z,3.10
2019-05-12T08:08:20.371Z,2.80
2019-05-12T08:13:23.904Z,4.08
2019-05-12T08:18:30.531Z,3.60
2019-05-12T08:23:33.855Z,3.87
2019-05-12T08:28:40.433Z,3.15
2019-05-12T08:33:43.640Z,3.15
2019-05-12T08:38:47.097Z,3.67
2019-05-12T08:43:54.843Z,3.27
2019-05-12T08:48:57.976Z,3.25
2019-05-12T08:54:02.774Z,4.85
2019-05-12T08:59:09.543Z,5.25
2019-05-12T09:04:15.119Z,4.47
2019-05-12T09:09:16.530Z,3.98
2019-05-12T09:14:19.850Z,3.60
2019-05-12T09:19:24.889Z,3.77
2019-05-12T09:24:28.182Z,3.65
2019-05-12T09:29:31.482Z,2.98
2019-05-12T09:34:34.816Z,3.70
2019-05-12T09:39:42.542Z,2.80
2019-05-12T09:44:43.906Z,3.45
2019-05-12T09:49:47.327Z,3.95
2019-05-12T09:54:50.625Z,3.22
2019-05-12T09:59:58.010Z,3.20
2019-05-12T10:05:00.925Z,2.85
2019-05-12T10:10:05.635Z,2.67
2019-05-12T10:15:09.928Z,2.72
2019-05-12T10:20:13.724Z,3.10
2019-05-12T10:25:17.143Z,2.90
2019-05-12T10:30:20.519Z,2.45
2019-05-12T10:35:26.665Z,2.35
2019-05-12T10:40:28.846Z,2.90
2019-05-12T10:45:32.907Z,2.47
2019-05-12T10:50:36.278Z,2.50
2019-05-12T10:55:39.599Z,2.42
2019-05-12T11:00:44.331Z,2.50
2019-05-12T11:05:47.848Z,2.77
2019-05-12T11:10:57.524Z,2.12
2019-05-12T11:15:56.170Z,2.12
2019-05-12T11:20:59.999Z,2.02
2019-05-12T11:26:03.863Z,2.52
2019-05-12T11:31:07.421Z,1.90
2019-05-12T11:36:13.546Z,1.90
2019-05-12T11:41:20.186Z,2.10
2019-05-12T11:46:23.825Z,2.20
2019-05-12T11:51:30.443Z,2.20
2019-05-12T11:56:33.575Z,1.80
2019-05-12T12:01:39.562Z,1.60
2019-05-12T12:06:43.840Z,2.02
2019-05-12T12:11:47.271Z,2.40
2019-05-12T12:16:51.607Z,2.12
2019-05-12T12:21:55.676Z,1.85
2019-05-12T12:26:58.994Z,2.12
2019-05-12T12:32:02.311Z,1.52
2019-05-12T12:37:05.639Z,2.10
2019-05-12T12:42:09.248Z,1.67
2019-05-12T12:47:13.939Z,1.52
2019-05-12T12:52:17.359Z,1.77
2019-05-12T12:57:20.711Z,1.98
2019-05-12T13:02:24.748Z,2.08
2019-05-12T13:07:28.243Z,2.00
2019-05-12T13:12:33.980Z,2.08
2019-05-12T13:17:41.669Z,1.60
2019-05-12T13:22:44.210Z,2.05
2019-05-12T13:27:46.834Z,1.95
2019-05-12T13:32:50.294Z,2.02
2019-05-12T13:37:56.484Z,1.82
2019-05-12T13:42:58.663Z,2.08
2019-05-12T13:48:03.916Z,2.00
2019-05-12T13:53:10.074Z,2.05
2019-05-12T13:58:13.622Z,1.82
2019-05-12T14:03:17.049Z,1.57
2019-05-12T14:08:20.379Z,2.35
2019-05-12T14:13:24.715Z,2.33
2019-05-12T14:18:28.085Z,2.10
2019-05-12T14:23:31.483Z,1.90
2019-05-12T14:28:39.373Z,1.98
2019-05-12T14:33:39.891Z,1.70
2019-05-12T14:38:43.222Z,2.30
2019-05-12T14:43:47.856Z,1.60
2019-05-12T14:48:51.352Z,1.77
2019-05-12T14:53:54.648Z,2.05
2019-05-12T14:59:00.622Z,1.90
2019-05-12T15:04:05.228Z,1.42
2019-05-12T15:09:14.885Z,1.60
2019-05-12T15:14:13.706Z,1.52
2019-05-12T15:19:23.494Z,1.17
2019-05-12T15:24:24.434Z,1.40
2019-05-12T15:29:27.228Z,1.30
2019-05-12T15:34:30.601Z,1.35
2019-05-12T15:39:33.997Z,1.30
2019-05-12T15:44:37.300Z,1.67
2019-05-12T15:49:40.623Z,1.50
2019-05-12T15:54:47.225Z,1.65
2019-05-12T15:59:48.964Z,1.42
2019-05-12T16:04:54.819Z,1.52
2019-05-12T16:09:57.342Z,1.35
2019-05-12T16:15:00.623Z,1.80
2019-05-12T16:20:05.685Z,1.42
2019-05-12T16:25:08.992Z,1.20
2019-05-12T16:30:13.780Z,1.32
2019-05-12T16:35:20.198Z,1.50
2019-05-12T16:40:23.824Z,1.42
2019-05-12T16:45:27.242Z,1.45
2019-05-12T16:50:30.564Z,1.55
2019-05-12T16:55:44.760Z,1.05
2019-05-12T17:00:39.788Z,1.40
2019-05-12T17:05:44.101Z,1.55
2019-05-12T17:10:58.312Z,1.67
2019-05-12T17:15:57.719Z,2.10
2019-05-12T17:20:57.564Z,2.65
2019-05-12T17:26:03.492Z,4.10
2019-05-12T17:31:06.055Z,4.80
2019-05-12T17:36:12.465Z,6.30
2019-05-12T17:41:17.822Z,5.83
2019-05-12T17:46:19.733Z,5.12
2019-05-12T17:51:26.722Z,4.28
2019-05-12T17:56:35.726Z,4.22
2019-05-12T18:01:35.580Z,3.67
2019-05-12T18:06:38.677Z,3.50
2019-05-12T18:11:46.093Z,3.52
2019-05-12T18:16:47.101Z,3.52
2019-05-12T18:21:55.885Z,2.70
2019-05-12T18:27:02.119Z,2.80
2019-05-12T18:32:00.595Z,3.15
2019-05-12T18:37:05.342Z,3.00
2019-05-12T18:42:08.925Z,2.80
2019-05-12T18:47:16.678Z,2.67
2019-05-12T18:52:17.356Z,3.05
2019-05-12T18:57:20.701Z,2.60
2019-05-12T19:02:28.367Z,2.87
2019-05-12T19:07:39.352Z,2.62
2019-05-12T19:12:35.617Z,2.87
2019-05-12T19:17:39.130Z,2.47
2019-05-12T19:22:48.128Z,2.60
2019-05-12T19:27:55.002Z,2.55
2019-05-12T19:32:54.778Z,2.62
2019-05-12T19:37:57.864Z,2.40
2019-05-12T19:43:06.065Z,3.05
2019-05-12T19:48:06.352Z,2.00
2019-05-12T19:53:10.440Z,2.25
2019-05-12T19:58:13.881Z,2.20
2019-05-12T20:03:17.193Z,2.58
2019-05-12T20:08:20.499Z,1.90
2019-05-12T20:13:24.207Z,2.25
2019-05-12T20:18:27.514Z,2.02
2019-05-12T20:23:30.818Z,2.27
2019-05-12T20:28:34.682Z,2.22
2019-05-12T20:33:38.017Z,2.22
2019-05-12T20:38:41.326Z,2.12
2019-05-12T20:43:44.962Z,2.33
2019-05-12T20:48:48.265Z,2.40
2019-05-12T20:53:51.577Z,1.98
2019-05-12T20:58:54.898Z,1.92
2019-05-12T21:03:58.197Z,1.90
2019-05-12T21:09:03.440Z,2.02
2019-05-12T21:14:10.058Z,2.12
2019-05-12T21:19:14.136Z,2.22
2019-05-12T21:24:16.608Z,1.77
2019-05-12T21:29:25.482Z,2.25
2019-05-12T21:34:25.603Z,2.50
2019-05-12T21:39:29.055Z,2.20
2019-05-12T21:44:32.394Z,1.75
2019-05-12T21:49:35.737Z,1.75
2019-05-12T21:54:39.669Z,2.17
2019-05-12T21:59:43.283Z,2.30
2019-05-12T22:04:46.602Z,1.82
2019-05-12T22:09:49.901Z,1.95
2019-05-12T22:14:54.322Z,1.80
2019-05-12T22:19:57.624Z,2.10
2019-05-12T22:25:00.926Z,1.60
2019-05-12T22:30:06.265Z,1.98
2019-05-12T22:35:13.167Z,2.05
2019-05-12T22:40:19.105Z,1.90
2019-05-12T22:45:19.637Z,1.55
2019-05-12T22:50:27.220Z,1.42
2019-05-12T22:55:32.698Z,1.75
2019-05-12T23:00:34.145Z,1.67
2019-05-12T23:05:37.833Z,1.67
2019-05-12T23:10:41.754Z,1.40
2019-05-12T23:15:49.383Z,1.60
2019-05-12T23:20:51.283Z,1.30
2019-05-12T23:26:00.442Z,1.62
2019-05-12T23:30:59.750Z,1.77
2019-05-12T23:36:04.028Z,1.42
2019-05-12T23:41:07.461Z,1.75
2019-05-12T23:46:10.764Z,1.60
2019-05-12T23:51:14.342Z,1.80
2019-05-12T23:56:17.680Z,1.35
